sensor_id;sensor_type;location;lat;lon;timestamp;P1;durP1;ratioP1;P2;durP2;ratioP2
78820;SDS011;68171;13.882;99.692;2023-07-08T00:00:43;17.10;;;6.43;;
78820;SDS011;68171;13.882;99.692;2023-07-08T00:01:51;19.85;;;5.82;;
78820;SDS011;68171;13.882;99.692;2023-07-08T00:02:57;13.10;;;5.80;;
78820;SDS011;68171;13.882;99.692;2023-07-08T00:04:03;15.68;;;5.25;;
78820;SDS011;68171;13.882;99.692;2023-07-08T00:05:11;14.30;;;5.63;;
78820;SDS011;68171;13.882;99.692;2023-07-08T00:06:19;12.50;;;5.70;;
78820;SDS011;68171;13.882;99.692;2023-07-08T00:07:28;11.65;;;5.75;;
78820;SDS011;68171;13.882;99.692;2023-07-08T00:08:33;15.00;;;5.43;;
78820;SDS011;68171;13.882;99.692;2023-07-08T00:09:38;17.70;;;6.10;;
78820;SDS011;68171;13.882;99.692;2023-07-08T00:10:44;14.27;;;5.25;;
78820;SDS011;68171;13.882;99.692;2023-07-08T00:11:50;17.42;;;5.57;;
78820;SDS011;68171;13.882;99.692;2023-07-08T00:12:56;14.05;;;5.40;;
78820;SDS011;68171;13.882;99.692;2023-07-08T00:14:02;17.58;;;5.05;;
78820;SDS011;68171;13.882;99.692;2023-07-08T00:15:09;15.63;;;5.10;;
78820;SDS011;68171;13.882;99.692;2023-07-08T00:16:15;14.37;;;4.93;;
78820;SDS011;68171;13.882;99.692;2023-07-08T00:17:22;11.05;;;4.53;;
78820;SDS011;68171;13.882;99.692;2023-07-08T00:18:28;11.63;;;4.50;;
78820;SDS011;68171;13.882;99.692;2023-07-08T00:19:34;9.02;;;3.60;;
78820;SDS011;68171;13.882;99.692;2023-07-08T00:20:40;11.68;;;4.53;;
78820;SDS011;68171;13.882;99.692;2023-07-08T00:21:49;12.15;;;4.93;;
78820;SDS011;68171;13.882;99.692;2023-07-08T00:22:55;17.05;;;5.85;;
78820;SDS011;68171;13.882;99.692;2023-07-08T00:24:04;16.33;;;7.03;;
78820;SDS011;68171;13.882;99.692;2023-07-08T00:25:09;17.52;;;6.85;;
78820;SDS011;68171;13.882;99.692;2023-07-08T00:26:18;17.17;;;7.72;;
78820;SDS011;68171;13.882;99.692;2023-07-08T00:27:26;23.53;;;7.33;;
78820;SDS011;68171;13.882;99.692;2023-07-08T00:28:32;19.80;;;7.22;;
78820;SDS011;68171;13.882;99.692;2023-07-08T00:29:37;22.00;;;7.40;;
78820;SDS011;68171;13.882;99.692;2023-07-08T00:30:44;17.75;;;6.93;;
78820;SDS011;68171;13.882;99.692;2023-07-08T00:31:51;13.77;;;6.13;;
78820;SDS011;68171;13.882;99.692;2023-07-08T00:32:58;10.20;;;4.70;;
78820;SDS011;68171;13.882;99.692;2023-07-08T00:34:03;9.82;;;3.22;;
78820;SDS011;68171;13.882;99.692;2023-07-08T00:35:10;8.93;;;3.00;;
78820;SDS011;68171;13.882;99.692;2023-07-08T00:36:15;8.45;;;3.40;;
78820;SDS011;68171;13.882;99.692;2023-07-08T00:37:24;11.57;;;4.38;;
78820;SDS011;68171;13.882;99.692;2023-07-08T00:38:34;14.83;;;4.23;;
78820;SDS011;68171;13.882;99.692;2023-07-08T00:39:41;13.57;;;3.53;;
78820;SDS011;68171;13.882;99.692;2023-07-08T00:40:50;11.23;;;3.60;;
78820;SDS011;68171;13.882;99.692;2023-07-08T00:41:55;14.15;;;3.83;;
78820;SDS011;68171;13.882;99.692;2023-07-08T00:43:02;11.65;;;4.78;;
78820;SDS011;68171;13.882;99.692;2023-07-08T00:44:11;10.45;;;4.20;;
78820;SDS011;68171;13.882;99.692;2023-07-08T00:45:19;10.57;;;4.18;;
78820;SDS011;68171;13.882;99.692;2023-07-08T00:46:37;11.95;;;4.20;;
78820;SDS011;68171;13.882;99.692;2023-07-08T00:47:47;14.55;;;5.00;;
78820;SDS011;68171;13.882;99.692;2023-07-08T00:48:55;16.60;;;5.80;;
78820;SDS011;68171;13.882;99.692;2023-07-08T00:50:07;11.10;;;4.53;;
78820;SDS011;68171;13.882;99.692;2023-07-08T00:51:16;15.02;;;5.28;;
78820;SDS011;68171;13.882;99.692;2023-07-08T00:52:25;13.23;;;5.00;;
78820;SDS011;68171;13.882;99.692;2023-07-08T00:53:33;10.63;;;3.53;;
78820;SDS011;68171;13.882;99.692;2023-07-08T00:54:41;8.32;;;2.60;;
78820;SDS011;68171;13.882;99.692;2023-07-08T00:55:47;9.48;;;2.92;;
78820;SDS011;68171;13.882;99.692;2023-07-08T00:56:53;10.70;;;2.75;;
78820;SDS011;68171;13.882;99.692;2023-07-08T00:58:01;13.30;;;4.57;;
78820;SDS011;68171;13.882;99.692;2023-07-08T00:59:06;13.95;;;4.30;;
78820;SDS011;68171;13.882;99.692;2023-07-08T01:00:15;12.13;;;4.53;;
78820;SDS011;68171;13.882;99.692;2023-07-08T01:01:23;11.67;;;4.13;;
78820;SDS011;68171;13.882;99.692;2023-07-08T01:02:31;14.25;;;4.18;;
78820;SDS011;68171;13.882;99.692;2023-07-08T01:03:40;11.75;;;4.03;;
78820;SDS011;68171;13.882;99.692;2023-07-08T01:04:52;8.20;;;3.17;;
78820;SDS011;68171;13.882;99.692;2023-07-08T01:06:01;13.10;;;3.05;;
78820;SDS011;68171;13.882;99.692;2023-07-08T01:07:09;6.72;;;2.95;;
78820;SDS011;68171;13.882;99.692;2023-07-08T01:08:17;9.05;;;2.85;;
78820;SDS011;68171;13.882;99.692;2023-07-08T01:09:32;9.77;;;2.72;;
78820;SDS011;68171;13.882;99.692;2023-07-08T01:10:39;7.63;;;2.83;;
78820;SDS011;68171;13.882;99.692;2023-07-08T01:11:51;14.35;;;3.10;;
78820;SDS011;68171;13.882;99.692;2023-07-08T01:12:57;15.40;;;3.53;;
78820;SDS011;68171;13.882;99.692;2023-07-08T01:14:09;6.07;;;2.10;;
78820;SDS011;68171;13.882;99.692;2023-07-08T01:15:16;9.93;;;2.40;;
78820;SDS011;68171;13.882;99.692;2023-07-08T01:16:23;10.85;;;2.35;;
78820;SDS011;68171;13.882;99.692;2023-07-08T01:17:29;8.43;;;2.40;;
78820;SDS011;68171;13.882;99.692;2023-07-08T01:18:37;7.47;;;2.75;;
78820;SDS011;68171;13.882;99.692;2023-07-08T01:19:43;10.25;;;2.97;;
78820;SDS011;68171;13.882;99.692;2023-07-08T01:20:50;9.20;;;3.20;;
78820;SDS011;68171;13.882;99.692;2023-07-08T01:22:00;9.35;;;2.40;;
78820;SDS011;68171;13.882;99.692;2023-07-08T01:23:07;7.88;;;2.58;;
78820;SDS011;68171;13.882;99.692;2023-07-08T01:24:33;6.87;;;2.10;;
78820;SDS011;68171;13.882;99.692;2023-07-08T01:25:42;8.20;;;2.70;;
78820;SDS011;68171;13.882;99.692;2023-07-08T01:26:47;8.05;;;1.98;;
78820;SDS011;68171;13.882;99.692;2023-07-08T01:27:55;8.70;;;2.15;;
78820;SDS011;68171;13.882;99.692;2023-07-08T01:29:00;7.15;;;1.80;;
78820;SDS011;68171;13.882;99.692;2023-07-08T01:30:08;7.10;;;2.30;;
78820;SDS011;68171;13.882;99.692;2023-07-08T01:31:14;7.97;;;1.77;;
78820;SDS011;68171;13.882;99.692;2023-07-08T01:32:21;7.03;;;2.10;;
78820;SDS011;68171;13.882;99.692;2023-07-08T01:33:26;10.38;;;2.42;;
78820;SDS011;68171;13.882;99.692;2023-07-08T01:34:33;6.30;;;2.03;;
78820;SDS011;68171;13.882;99.692;2023-07-08T01:35:38;7.40;;;2.00;;
78820;SDS011;68171;13.882;99.692;2023-07-08T01:36:46;5.53;;;1.88;;
78820;SDS011;68171;13.882;99.692;2023-07-08T01:37:54;5.95;;;1.80;;
78820;SDS011;68171;13.882;99.692;2023-07-08T01:39:03;8.15;;;2.63;;
78820;SDS011;68171;13.882;99.692;2023-07-08T01:40:22;8.23;;;2.53;;
78820;SDS011;68171;13.882;99.692;2023-07-08T01:41:30;6.80;;;2.03;;
78820;SDS011;68171;13.882;99.692;2023-07-08T01:42:35;7.88;;;2.08;;
78820;SDS011;68171;13.882;99.692;2023-07-08T01:43:42;9.18;;;2.58;;
78820;SDS011;68171;13.882;99.692;2023-07-08T01:44:47;6.97;;;2.10;;
78820;SDS011;68171;13.882;99.692;2023-07-08T01:45:54;12.02;;;2.45;;
78820;SDS011;68171;13.882;99.692;2023-07-08T01:47:01;10.10;;;1.90;;
78820;SDS011;68171;13.882;99.692;2023-07-08T01:48:11;6.00;;;1.73;;
78820;SDS011;68171;13.882;99.692;2023-07-08T01:49:17;6.28;;;1.90;;
78820;SDS011;68171;13.882;99.692;2023-07-08T01:50:24;7.78;;;2.13;;
78820;SDS011;68171;13.882;99.692;2023-07-08T01:51:30;8.38;;;2.30;;
78820;SDS011;68171;13.882;99.692;2023-07-08T01:52:37;7.85;;;2.00;;
78820;SDS011;68171;13.882;99.692;2023-07-08T01:53:44;5.25;;;1.98;;
78820;SDS011;68171;13.882;99.692;2023-07-08T01:54:54;7.45;;;2.03;;
78820;SDS011;68171;13.882;99.692;2023-07-08T01:55:59;8.15;;;2.10;;
78820;SDS011;68171;13.882;99.692;2023-07-08T01:57:06;5.93;;;1.65;;
78820;SDS011;68171;13.882;99.692;2023-07-08T01:58:11;6.57;;;2.00;;
78820;SDS011;68171;13.882;99.692;2023-07-08T01:59:18;6.32;;;1.90;;
78820;SDS011;68171;13.882;99.692;2023-07-08T02:00:23;4.85;;;1.60;;
78820;SDS011;68171;13.882;99.692;2023-07-08T02:01:29;7.78;;;1.95;;
78820;SDS011;68171;13.882;99.692;2023-07-08T02:02:35;6.78;;;1.77;;
78820;SDS011;68171;13.882;99.692;2023-07-08T02:03:41;7.75;;;1.80;;
78820;SDS011;68171;13.882;99.692;2023-07-08T02:04:51;7.80;;;1.95;;
78820;SDS011;68171;13.882;99.692;2023-07-08T02:05:57;6.38;;;1.98;;
78820;SDS011;68171;13.882;99.692;2023-07-08T02:07:03;6.22;;;1.90;;
78820;SDS011;68171;13.882;99.692;2023-07-08T02:08:09;5.45;;;1.80;;
78820;SDS011;68171;13.882;99.692;2023-07-08T02:09:16;5.53;;;2.00;;
78820;SDS011;68171;13.882;99.692;2023-07-08T02:10:26;7.03;;;2.13;;
78820;SDS011;68171;13.882;99.692;2023-07-08T02:11:36;6.68;;;1.80;;
78820;SDS011;68171;13.882;99.692;2023-07-08T02:12:43;5.47;;;1.73;;
78820;SDS011;68171;13.882;99.692;2023-07-08T02:13:48;6.07;;;1.75;;
78820;SDS011;68171;13.882;99.692;2023-07-08T02:14:55;9.80;;;2.20;;
78820;SDS011;68171;13.882;99.692;2023-07-08T02:16:00;7.53;;;2.60;;
78820;SDS011;68171;13.882;99.692;2023-07-08T02:17:06;8.57;;;2.80;;
78820;SDS011;68171;13.882;99.692;2023-07-08T02:18:11;7.07;;;2.85;;
78820;SDS011;68171;13.882;99.692;2023-07-08T02:19:18;7.15;;;2.00;;
78820;SDS011;68171;13.882;99.692;2023-07-08T02:20:27;12.77;;;5.47;;
78820;SDS011;68171;13.882;99.692;2023-07-08T02:21:33;15.05;;;7.60;;
78820;SDS011;68171;13.882;99.692;2023-07-08T02:22:38;15.20;;;6.95;;
78820;SDS011;68171;13.882;99.692;2023-07-08T02:23:48;12.45;;;5.70;;
78820;SDS011;68171;13.882;99.692;2023-07-08T02:24:55;15.07;;;4.80;;
78820;SDS011;68171;13.882;99.692;2023-07-08T02:26:02;9.68;;;2.35;;
78820;SDS011;68171;13.882;99.692;2023-07-08T02:27:07;7.22;;;2.28;;
78820;SDS011;68171;13.882;99.692;2023-07-08T02:28:14;6.85;;;2.55;;
78820;SDS011;68171;13.882;99.692;2023-07-08T02:29:19;8.30;;;2.60;;
78820;SDS011;68171;13.882;99.692;2023-07-08T02:30:26;6.45;;;2.90;;
78820;SDS011;68171;13.882;99.692;2023-07-08T02:31:31;7.60;;;2.17;;
78820;SDS011;68171;13.882;99.692;2023-07-08T02:32:38;7.30;;;2.05;;
78820;SDS011;68171;13.882;99.692;2023-07-08T02:33:43;8.02;;;2.75;;
78820;SDS011;68171;13.882;99.692;2023-07-08T02:34:50;6.20;;;2.35;;
78820;SDS011;68171;13.882;99.692;2023-07-08T02:35:55;5.47;;;1.75;;
78820;SDS011;68171;13.882;99.692;2023-07-08T02:37:02;4.63;;;1.70;;
78820;SDS011;68171;13.882;99.692;2023-07-08T02:38:08;5.53;;;1.80;;
78820;SDS011;68171;13.882;99.692;2023-07-08T02:39:14;5.28;;;1.90;;
78820;SDS011;68171;13.882;99.692;2023-07-08T02:40:21;6.22;;;1.95;;
78820;SDS011;68171;13.882;99.692;2023-07-08T02:41:28;5.53;;;2.00;;
78820;SDS011;68171;13.882;99.692;2023-07-08T02:42:33;7.13;;;3.00;;
78820;SDS011;68171;13.882;99.692;2023-07-08T02:43:39;8.25;;;3.22;;
78820;SDS011;68171;13.882;99.692;2023-07-08T02:44:45;9.63;;;2.25;;
78820;SDS011;68171;13.882;99.692;2023-07-08T02:45:52;8.73;;;2.45;;
78820;SDS011;68171;13.882;99.692;2023-07-08T02:46:57;8.40;;;2.30;;
78820;SDS011;68171;13.882;99.692;2023-07-08T02:48:03;6.88;;;1.65;;
78820;SDS011;68171;13.882;99.692;2023-07-08T02:49:09;6.80;;;2.08;;
78820;SDS011;68171;13.882;99.692;2023-07-08T02:50:15;5.43;;;1.83;;
78820;SDS011;68171;13.882;99.692;2023-07-08T02:51:22;5.63;;;1.40;;
78820;SDS011;68171;13.882;99.692;2023-07-08T02:52:28;5.47;;;1.85;;
78820;SDS011;68171;13.882;99.692;2023-07-08T02:53:33;6.47;;;1.60;;
78820;SDS011;68171;13.882;99.692;2023-07-08T02:54:40;5.05;;;1.45;;
78820;SDS011;68171;13.882;99.692;2023-07-08T02:55:47;8.20;;;1.80;;
78820;SDS011;68171;13.882;99.692;2023-07-08T02:56:54;6.50;;;1.50;;
78820;SDS011;68171;13.882;99.692;2023-07-08T02:57:59;6.65;;;1.73;;
78820;SDS011;68171;13.882;99.692;2023-07-08T02:59:05;9.20;;;1.80;;
78820;SDS011;68171;13.882;99.692;2023-07-08T03:00:11;6.25;;;2.30;;
78820;SDS011;68171;13.882;99.692;2023-07-08T03:01:19;5.63;;;2.13;;
78820;SDS011;68171;13.882;99.692;2023-07-08T03:02:25;5.40;;;2.03;;
78820;SDS011;68171;13.882;99.692;2023-07-08T03:03:32;7.30;;;2.03;;
78820;SDS011;68171;13.882;99.692;2023-07-08T03:04:38;5.93;;;1.63;;
78820;SDS011;68171;13.882;99.692;2023-07-08T03:05:45;6.43;;;1.73;;
78820;SDS011;68171;13.882;99.692;2023-07-08T03:06:59;5.28;;;1.63;;
78820;SDS011;68171;13.882;99.692;2023-07-08T03:08:06;4.18;;;1.50;;
78820;SDS011;68171;13.882;99.692;2023-07-08T03:09:12;5.15;;;1.48;;
78820;SDS011;68171;13.882;99.692;2023-07-08T03:10:18;7.50;;;1.10;;
78820;SDS011;68171;13.882;99.692;2023-07-08T03:11:26;6.50;;;1.80;;
78820;SDS011;68171;13.882;99.692;2023-07-08T03:12:32;4.30;;;1.30;;
78820;SDS011;68171;13.882;99.692;2023-07-08T03:13:37;5.15;;;1.40;;
78820;SDS011;68171;13.882;99.692;2023-07-08T03:14:44;5.70;;;1.40;;
78820;SDS011;68171;13.882;99.692;2023-07-08T03:15:49;6.00;;;1.70;;
78820;SDS011;68171;13.882;99.692;2023-07-08T03:16:58;3.93;;;1.20;;
78820;SDS011;68171;13.882;99.692;2023-07-08T03:18:03;5.93;;;1.80;;
78820;SDS011;68171;13.882;99.692;2023-07-08T03:19:13;5.60;;;1.60;;
78820;SDS011;68171;13.882;99.692;2023-07-08T03:20:18;7.93;;;1.40;;
78820;SDS011;68171;13.882;99.692;2023-07-08T03:21:25;6.63;;;1.50;;
78820;SDS011;68171;13.882;99.692;2023-07-08T03:22:30;4.53;;;1.40;;
78820;SDS011;68171;13.882;99.692;2023-07-08T03:23:36;5.63;;;1.65;;
78820;SDS011;68171;13.882;99.692;2023-07-08T03:24:42;5.15;;;1.70;;
78820;SDS011;68171;13.882;99.692;2023-07-08T03:25:50;4.30;;;1.75;;
78820;SDS011;68171;13.882;99.692;2023-07-08T03:26:57;5.60;;;1.60;;
78820;SDS011;68171;13.882;99.692;2023-07-08T03:28:09;4.73;;;1.60;;
78820;SDS011;68171;13.882;99.692;2023-07-08T03:29:18;5.47;;;1.60;;
78820;SDS011;68171;13.882;99.692;2023-07-08T03:30:25;6.40;;;1.50;;
78820;SDS011;68171;13.882;99.692;2023-07-08T03:31:31;7.72;;;1.65;;
78820;SDS011;68171;13.882;99.692;2023-07-08T03:32:38;10.77;;;1.80;;
78820;SDS011;68171;13.882;99.692;2023-07-08T03:33:43;6.20;;;1.45;;
78820;SDS011;68171;13.882;99.692;2023-07-08T03:34:50;4.28;;;1.40;;
78820;SDS011;68171;13.882;99.692;2023-07-08T03:35:55;4.35;;;1.60;;
78820;SDS011;68171;13.882;99.692;2023-07-08T03:37:02;4.25;;;1.55;;
78820;SDS011;68171;13.882;99.692;2023-07-08T03:38:08;4.93;;;1.57;;
78820;SDS011;68171;13.882;99.692;2023-07-08T03:39:14;3.87;;;1.60;;
78820;SDS011;68171;13.882;99.692;2023-07-08T03:40:21;5.07;;;1.50;;
78820;SDS011;68171;13.882;99.692;2023-07-08T03:41:26;6.43;;;1.40;;
78820;SDS011;68171;13.882;99.692;2023-07-08T03:42:34;6.53;;;1.80;;
78820;SDS011;68171;13.882;99.692;2023-07-08T03:43:40;5.45;;;2.13;;
78820;SDS011;68171;13.882;99.692;2023-07-08T03:44:46;5.63;;;2.30;;
78820;SDS011;68171;13.882;99.692;2023-07-08T03:45:52;6.55;;;1.92;;
78820;SDS011;68171;13.882;99.692;2023-07-08T03:46:58;7.35;;;3.80;;
78820;SDS011;68171;13.882;99.692;2023-07-08T03:48:04;7.65;;;2.05;;
78820;SDS011;68171;13.882;99.692;2023-07-08T03:49:11;5.87;;;1.80;;
78820;SDS011;68171;13.882;99.692;2023-07-08T03:50:17;4.67;;;1.50;;
78820;SDS011;68171;13.882;99.692;2023-07-08T03:51:25;5.03;;;1.50;;
78820;SDS011;68171;13.882;99.692;2023-07-08T03:52:33;6.35;;;3.63;;
78820;SDS011;68171;13.882;99.692;2023-07-08T03:53:38;8.52;;;3.88;;
78820;SDS011;68171;13.882;99.692;2023-07-08T03:54:45;6.90;;;1.80;;
78820;SDS011;68171;13.882;99.692;2023-07-08T03:55:50;5.65;;;1.40;;
78820;SDS011;68171;13.882;99.692;2023-07-08T03:56:57;6.22;;;1.20;;
78820;SDS011;68171;13.882;99.692;2023-07-08T03:58:03;3.40;;;1.17;;
78820;SDS011;68171;13.882;99.692;2023-07-08T03:59:10;4.82;;;1.40;;
78820;SDS011;68171;13.882;99.692;2023-07-08T04:00:15;4.00;;;1.20;;
78820;SDS011;68171;13.882;99.692;2023-07-08T04:01:24;5.07;;;1.40;;
78820;SDS011;68171;13.882;99.692;2023-07-08T04:02:30;5.18;;;1.70;;
78820;SDS011;68171;13.882;99.692;2023-07-08T04:03:36;5.82;;;1.40;;
78820;SDS011;68171;13.882;99.692;2023-07-08T04:04:42;4.25;;;1.40;;
78820;SDS011;68171;13.882;99.692;2023-07-08T04:05:50;3.85;;;1.40;;
78820;SDS011;68171;13.882;99.692;2023-07-08T04:06:55;4.10;;;1.30;;
78820;SDS011;68171;13.882;99.692;2023-07-08T04:08:01;7.03;;;1.70;;
78820;SDS011;68171;13.882;99.692;2023-07-08T04:09:07;12.52;;;5.93;;
78820;SDS011;68171;13.882;99.692;2023-07-08T04:10:13;10.55;;;5.25;;
78820;SDS011;68171;13.882;99.692;2023-07-08T04:11:20;4.13;;;2.10;;
78820;SDS011;68171;13.882;99.692;2023-07-08T04:12:27;4.97;;;1.90;;
78820;SDS011;68171;13.882;99.692;2023-07-08T04:13:34;5.15;;;2.50;;
78820;SDS011;68171;13.882;99.692;2023-07-08T04:14:40;6.97;;;3.05;;
78820;SDS011;68171;13.882;99.692;2023-07-08T04:15:48;8.65;;;3.00;;
78820;SDS011;68171;13.882;99.692;2023-07-08T04:16:56;8.00;;;3.83;;
78820;SDS011;68171;13.882;99.692;2023-07-08T04:18:02;13.50;;;5.63;;
78820;SDS011;68171;13.882;99.692;2023-07-08T04:19:09;7.57;;;3.38;;
78820;SDS011;68171;13.882;99.692;2023-07-08T04:20:18;6.30;;;3.13;;
78820;SDS011;68171;13.882;99.692;2023-07-08T04:21:25;6.68;;;3.55;;
78820;SDS011;68171;13.882;99.692;2023-07-08T04:22:30;10.53;;;3.83;;
78820;SDS011;68171;13.882;99.692;2023-07-08T04:23:37;8.63;;;4.00;;
78820;SDS011;68171;13.882;99.692;2023-07-08T04:24:42;6.90;;;3.40;;
78820;SDS011;68171;13.882;99.692;2023-07-08T04:25:49;5.85;;;3.08;;
78820;SDS011;68171;13.882;99.692;2023-07-08T04:26:55;5.97;;;2.85;;
78820;SDS011;68171;13.882;99.692;2023-07-08T04:28:02;5.78;;;2.70;;
78820;SDS011;68171;13.882;99.692;2023-07-08T04:29:12;5.00;;;2.40;;
78820;SDS011;68171;13.882;99.692;2023-07-08T04:30:21;5.75;;;2.42;;
78820;SDS011;68171;13.882;99.692;2023-07-08T04:31:27;5.68;;;1.50;;
78820;SDS011;68171;13.882;99.692;2023-07-08T04:32:34;6.25;;;1.70;;
78820;SDS011;68171;13.882;99.692;2023-07-08T04:33:43;5.77;;;1.87;;
78820;SDS011;68171;13.882;99.692;2023-07-08T04:34:50;7.70;;;3.27;;
78820;SDS011;68171;13.882;99.692;2023-07-08T04:35:55;5.57;;;2.90;;
78820;SDS011;68171;13.882;99.692;2023-07-08T04:37:02;5.07;;;2.50;;
78820;SDS011;68171;13.882;99.692;2023-07-08T04:38:09;8.57;;;3.30;;
78820;SDS011;68171;13.882;99.692;2023-07-08T04:39:21;6.60;;;2.65;;
78820;SDS011;68171;13.882;99.692;2023-07-08T04:40:27;6.13;;;2.50;;
78820;SDS011;68171;13.882;99.692;2023-07-08T04:41:33;8.10;;;3.90;;
78820;SDS011;68171;13.882;99.692;2023-07-08T04:42:44;5.72;;;2.80;;
78820;SDS011;68171;13.882;99.692;2023-07-08T04:43:50;9.85;;;4.57;;
78820;SDS011;68171;13.882;99.692;2023-07-08T04:44:58;9.83;;;5.10;;
78820;SDS011;68171;13.882;99.692;2023-07-08T04:46:14;12.80;;;8.13;;
78820;SDS011;68171;13.882;99.692;2023-07-08T04:47:23;10.45;;;6.60;;
78820;SDS011;68171;13.882;99.692;2023-07-08T04:48:32;12.65;;;8.48;;
78820;SDS011;68171;13.882;99.692;2023-07-08T04:49:37;11.70;;;7.18;;
78820;SDS011;68171;13.882;99.692;2023-07-08T04:50:47;11.93;;;7.47;;
78820;SDS011;68171;13.882;99.692;2023-07-08T04:51:53;6.45;;;2.75;;
78820;SDS011;68171;13.882;99.692;2023-07-08T04:52:59;5.43;;;2.47;;
78820;SDS011;68171;13.882;99.692;2023-07-08T04:54:05;5.28;;;2.40;;
78820;SDS011;68171;13.882;99.692;2023-07-08T04:55:12;5.38;;;2.60;;
78820;SDS011;68171;13.882;99.692;2023-07-08T04:56:18;8.60;;;2.57;;
78820;SDS011;68171;13.882;99.692;2023-07-08T04:57:25;5.97;;;2.60;;
78820;SDS011;68171;13.882;99.692;2023-07-08T04:58:31;5.43;;;2.20;;
78820;SDS011;68171;13.882;99.692;2023-07-08T04:59:37;4.07;;;1.63;;
78820;SDS011;68171;13.882;99.692;2023-07-08T05:00:44;3.45;;;1.30;;
78820;SDS011;68171;13.882;99.692;2023-07-08T05:01:52;4.10;;;1.60;;
78820;SDS011;68171;13.882;99.692;2023-07-08T05:02:57;4.25;;;1.70;;
78820;SDS011;68171;13.882;99.692;2023-07-08T05:04:03;6.32;;;1.83;;
78820;SDS011;68171;13.882;99.692;2023-07-08T05:05:09;4.85;;;2.28;;
78820;SDS011;68171;13.882;99.692;2023-07-08T05:06:15;6.72;;;2.85;;
78820;SDS011;68171;13.882;99.692;2023-07-08T05:07:20;8.00;;;3.60;;
78820;SDS011;68171;13.882;99.692;2023-07-08T05:08:26;5.33;;;2.60;;
78820;SDS011;68171;13.882;99.692;2023-07-08T05:09:50;5.82;;;3.03;;
78820;SDS011;68171;13.882;99.692;2023-07-08T05:10:56;7.40;;;2.75;;
78820;SDS011;68171;13.882;99.692;2023-07-08T05:12:04;6.45;;;2.70;;
78820;SDS011;68171;13.882;99.692;2023-07-08T05:13:12;5.05;;;2.22;;
78820;SDS011;68171;13.882;99.692;2023-07-08T05:14:20;5.75;;;2.80;;
78820;SDS011;68171;13.882;99.692;2023-07-08T05:15:26;7.28;;;3.55;;
78820;SDS011;68171;13.882;99.692;2023-07-08T05:16:35;6.10;;;3.63;;
78820;SDS011;68171;13.882;99.692;2023-07-08T05:17:44;6.25;;;3.17;;
78820;SDS011;68171;13.882;99.692;2023-07-08T05:18:50;8.67;;;3.10;;
78820;SDS011;68171;13.882;99.692;2023-07-08T05:19:57;7.53;;;3.40;;
78820;SDS011;68171;13.882;99.692;2023-07-08T05:21:04;7.55;;;4.20;;
78820;SDS011;68171;13.882;99.692;2023-07-08T05:22:11;7.75;;;4.10;;
78820;SDS011;68171;13.882;99.692;2023-07-08T05:23:22;6.60;;;3.83;;
78820;SDS011;68171;13.882;99.692;2023-07-08T05:24:29;8.15;;;3.70;;
78820;SDS011;68171;13.882;99.692;2023-07-08T05:25:34;9.05;;;3.00;;
78820;SDS011;68171;13.882;99.692;2023-07-08T05:26:41;5.60;;;2.58;;
78820;SDS011;68171;13.882;99.692;2023-07-08T05:27:47;6.47;;;2.85;;
78820;SDS011;68171;13.882;99.692;2023-07-08T05:28:53;6.35;;;3.50;;
78820;SDS011;68171;13.882;99.692;2023-07-08T05:29:59;8.03;;;3.00;;
78820;SDS011;68171;13.882;99.692;2023-07-08T05:31:05;8.10;;;3.40;;
78820;SDS011;68171;13.882;99.692;2023-07-08T05:32:12;5.78;;;3.13;;
78820;SDS011;68171;13.882;99.692;2023-07-08T05:33:19;6.80;;;3.10;;
78820;SDS011;68171;13.882;99.692;2023-07-08T05:34:24;7.47;;;3.20;;
78820;SDS011;68171;13.882;99.692;2023-07-08T05:35:31;7.35;;;2.90;;
78820;SDS011;68171;13.882;99.692;2023-07-08T05:36:36;6.05;;;2.45;;
78820;SDS011;68171;13.882;99.692;2023-07-08T05:37:43;8.45;;;4.00;;
78820;SDS011;68171;13.882;99.692;2023-07-08T05:38:50;8.70;;;4.90;;
78820;SDS011;68171;13.882;99.692;2023-07-08T05:39:56;7.97;;;3.38;;
78820;SDS011;68171;13.882;99.692;2023-07-08T05:41:03;8.83;;;3.10;;
78820;SDS011;68171;13.882;99.692;2023-07-08T05:42:10;7.63;;;2.93;;
78820;SDS011;68171;13.882;99.692;2023-07-08T05:43:15;6.80;;;2.95;;
78820;SDS011;68171;13.882;99.692;2023-07-08T05:44:21;6.15;;;3.05;;
78820;SDS011;68171;13.882;99.692;2023-07-08T05:45:27;6.63;;;3.60;;
78820;SDS011;68171;13.882;99.692;2023-07-08T05:46:33;6.07;;;3.17;;
78820;SDS011;68171;13.882;99.692;2023-07-08T05:47:40;5.75;;;3.00;;
78820;SDS011;68171;13.882;99.692;2023-07-08T05:48:46;6.40;;;3.20;;
78820;SDS011;68171;13.882;99.692;2023-07-08T05:49:54;7.70;;;2.80;;
78820;SDS011;68171;13.882;99.692;2023-07-08T05:51:00;5.90;;;2.85;;
78820;SDS011;68171;13.882;99.692;2023-07-08T05:52:06;5.73;;;2.67;;
78820;SDS011;68171;13.882;99.692;2023-07-08T05:53:14;5.70;;;2.90;;
78820;SDS011;68171;13.882;99.692;2023-07-08T05:54:24;6.28;;;3.03;;
78820;SDS011;68171;13.882;99.692;2023-07-08T05:55:31;7.30;;;2.70;;
78820;SDS011;68171;13.882;99.692;2023-07-08T05:56:36;7.65;;;2.78;;
78820;SDS011;68171;13.882;99.692;2023-07-08T05:57:43;6.93;;;3.10;;
78820;SDS011;68171;13.882;99.692;2023-07-08T05:58:50;6.13;;;2.80;;
78820;SDS011;68171;13.882;99.692;2023-07-08T05:59:57;5.35;;;2.58;;
78820;SDS011;68171;13.882;99.692;2023-07-08T06:01:02;5.95;;;2.65;;
78820;SDS011;68171;13.882;99.692;2023-07-08T06:02:09;5.90;;;2.25;;
78820;SDS011;68171;13.882;99.692;2023-07-08T06:03:17;5.93;;;2.20;;
78820;SDS011;68171;13.882;99.692;2023-07-08T06:04:24;5.37;;;2.00;;
78820;SDS011;68171;13.882;99.692;2023-07-08T06:05:29;4.93;;;2.28;;
78820;SDS011;68171;13.882;99.692;2023-07-08T06:06:37;5.82;;;2.33;;
78820;SDS011;68171;13.882;99.692;2023-07-08T06:07:42;7.10;;;2.20;;
78820;SDS011;68171;13.882;99.692;2023-07-08T06:08:48;5.65;;;1.95;;
78820;SDS011;68171;13.882;99.692;2023-07-08T06:09:54;4.72;;;2.10;;
78820;SDS011;68171;13.882;99.692;2023-07-08T06:11:00;4.72;;;2.30;;
78820;SDS011;68171;13.882;99.692;2023-07-08T06:12:06;4.50;;;1.98;;
78820;SDS011;68171;13.882;99.692;2023-07-08T06:13:13;4.78;;;1.83;;
78820;SDS011;68171;13.882;99.692;2023-07-08T06:14:18;4.77;;;1.93;;
78820;SDS011;68171;13.882;99.692;2023-07-08T06:15:25;5.03;;;2.00;;
78820;SDS011;68171;13.882;99.692;2023-07-08T06:16:30;5.35;;;2.63;;
78820;SDS011;68171;13.882;99.692;2023-07-08T06:17:47;9.23;;;4.43;;
78820;SDS011;68171;13.882;99.692;2023-07-08T06:18:55;8.35;;;4.25;;
78820;SDS011;68171;13.882;99.692;2023-07-08T06:20:02;7.57;;;4.28;;
78820;SDS011;68171;13.882;99.692;2023-07-08T06:21:07;9.27;;;5.03;;
78820;SDS011;68171;13.882;99.692;2023-07-08T06:22:14;9.40;;;5.13;;
78820;SDS011;68171;13.882;99.692;2023-07-08T06:23:39;8.13;;;5.45;;
78820;SDS011;68171;13.882;99.692;2023-07-08T06:24:45;11.15;;;5.60;;
78820;SDS011;68171;13.882;99.692;2023-07-08T06:25:51;13.50;;;6.20;;
78820;SDS011;68171;13.882;99.692;2023-07-08T06:26:57;14.57;;;6.80;;
78820;SDS011;68171;13.882;99.692;2023-07-08T06:28:03;15.98;;;6.85;;
78820;SDS011;68171;13.882;99.692;2023-07-08T06:29:09;10.32;;;6.32;;
78820;SDS011;68171;13.882;99.692;2023-07-08T06:30:15;9.70;;;6.15;;
78820;SDS011;68171;13.882;99.692;2023-07-08T06:31:21;9.68;;;6.03;;
78820;SDS011;68171;13.882;99.692;2023-07-08T06:32:26;8.45;;;5.15;;
78820;SDS011;68171;13.882;99.692;2023-07-08T06:33:33;9.88;;;5.60;;
78820;SDS011;68171;13.882;99.692;2023-07-08T06:34:40;10.82;;;6.15;;
78820;SDS011;68171;13.882;99.692;2023-07-08T06:35:46;9.13;;;5.18;;
78820;SDS011;68171;13.882;99.692;2023-07-08T06:36:52;15.20;;;6.67;;